createdAt,value
2018-05-12T00:01:05.497Z,14.68
2018-05-12T00:03:33.646Z,14.67
2018-05-12T00:06:01.815Z,14.61
2018-05-12T00:08:29.955Z,14.56
2018-05-12T00:10:58.083Z,14.54
2018-05-12T00:13:26.221Z,14.55
2018-05-12T00:15:54.386Z,14.52
2018-05-12T00:18:22.504Z,14.49
2018-05-12T00:20:50.670Z,14.47
2018-05-12T00:23:18.852Z,14.45
2018-05-12T00:25:46.990Z,14.41
2018-05-12T00:28:15.135Z,14.34
2018-05-12T00:30:43.279Z,14.26
2018-05-12T00:33:11.413Z,14.22
2018-05-12T00:35:39.649Z,14.20
2018-05-12T00:38:07.818Z,14.20
2018-05-12T00:40:35.970Z,14.16
2018-05-12T00:43:04.196Z,14.12
2018-05-12T00:45:32.284Z,14.06
2018-05-12T00:48:00.423Z,14.04
2018-05-12T00:50:28.589Z,14.04
2018-05-12T00:52:56.752Z,14.04
2018-05-12T00:55:24.903Z,14.04
2018-05-12T00:57:53.087Z,14.03
2018-05-12T01:00:21.193Z,13.99
2018-05-12T01:02:49.337Z,13.94
2018-05-12T01:05:17.484Z,13.92
2018-05-12T01:07:46.414Z,13.91
2018-05-12T01:10:14.553Z,13.90
2018-05-12T01:12:42.731Z,13.89
2018-05-12T01:15:10.887Z,13.88
2018-05-12T01:17:38.993Z,13.83
2018-05-12T01:20:07.135Z,13.79
2018-05-12T01:22:35.254Z,13.76
2018-05-12T01:25:03.406Z,13.68
2018-05-12T01:27:31.570Z,13.64
2018-05-12T01:29:59.688Z,13.61
2018-05-12T01:32:27.838Z,13.60
2018-05-12T01:34:55.972Z,13.59
2018-05-12T01:37:24.107Z,13.56
2018-05-12T01:39:52.247Z,13.54
2018-05-12T01:42:20.416Z,13.50
2018-05-12T01:44:48.543Z,13.47
2018-05-12T01:47:16.673Z,13.41
2018-05-12T01:49:44.838Z,13.37
2018-05-12T01:52:12.970Z,13.31
2018-05-12T01:54:41.128Z,13.31
2018-05-12T01:57:10.256Z,13.30
2018-05-12T01:59:38.635Z,13.30
2018-05-12T02:02:06.765Z,13.29
2018-05-12T02:04:34.915Z,13.28
2018-05-12T02:07:03.084Z,13.26
2018-05-12T02:09:31.236Z,13.25
2018-05-12T02:11:59.373Z,13.25
2018-05-12T02:14:27.512Z,13.23
2018-05-12T02:16:55.644Z,13.24
2018-05-12T02:19:23.789Z,13.24
2018-05-12T02:21:51.915Z,13.21
2018-05-12T02:24:20.039Z,13.16
2018-05-12T02:26:48.175Z,13.14
2018-05-12T02:29:16.319Z,13.14
2018-05-12T02:31:44.457Z,13.13
2018-05-12T02:34:12.643Z,13.10
2018-05-12T02:36:40.790Z,13.07
2018-05-12T02:39:09.937Z,13.05
2018-05-12T02:41:38.090Z,13.04
2018-05-12T02:44:06.230Z,13.02
2018-05-12T02:46:34.357Z,13.03
2018-05-12T02:49:02.494Z,13.04
2018-05-12T02:51:30.639Z,13.05
2018-05-12T02:53:58.781Z,13.05
2018-05-12T02:56:26.928Z,13.04
2018-05-12T02:58:55.068Z,13.02
2018-05-12T03:01:23.225Z,13.01
2018-05-12T03:03:51.364Z,12.99
2018-05-12T03:06:19.507Z,12.96
2018-05-12T03:08:47.632Z,12.95
2018-05-12T03:11:15.775Z,12.94
2018-05-12T03:13:43.905Z,12.91
2018-05-12T03:16:12.043Z,12.87
2018-05-12T03:18:40.171Z,12.86
2018-05-12T03:21:08.306Z,12.83
2018-05-12T03:23:36.433Z,12.83
2018-05-12T03:26:04.604Z,12.77
2018-05-12T03:28:32.717Z,12.73
2018-05-12T03:31:00.869Z,12.72
2018-05-12T03:33:29.023Z,12.72
2018-05-12T03:35:57.145Z,12.73
2018-05-12T03:38:25.285Z,12.76
2018-05-12T03:40:53.459Z,12.77
2018-05-12T03:43:21.593Z,12.77
2018-05-12T03:45:49.726Z,12.78
2018-05-12T03:48:17.854Z,12.78
2018-05-12T03:50:46.005Z,12.78
2018-05-12T03:53:14.135Z,12.80
2018-05-12T03:55:42.278Z,12.84
2018-05-12T03:58:10.429Z,12.87
2018-05-12T04:00:38.610Z,12.92
2018-05-12T04:03:06.825Z,12.98
2018-05-12T04:05:46.811Z,13.04
2018-05-12T04:08:26.624Z,13.12
2018-05-12T04:11:06.595Z,13.21
2018-05-12T04:13:34.730Z,13.30
2018-05-12T04:16:02.868Z,13.39
2018-05-12T04:18:31.014Z,13.48
2018-05-12T04:20:59.152Z,13.58
2018-05-12T04:23:27.301Z,13.67
2018-05-12T04:25:55.441Z,13.77
2018-05-12T04:28:23.595Z,13.91
2018-05-12T04:30:52.893Z,14.02
2018-05-12T04:33:21.019Z,14.14
2018-05-12T04:35:49.159Z,14.24
2018-05-12T04:38:17.297Z,14.32
2018-05-12T04:40:45.420Z,14.40
2018-05-12T04:43:13.558Z,14.41
2018-05-12T04:45:41.704Z,14.47
2018-05-12T04:48:09.839Z,14.56
2018-05-12T04:50:37.973Z,14.60
2018-05-12T04:53:06.191Z,14.71
2018-05-12T04:55:34.368Z,14.77
2018-05-12T04:58:02.525Z,14.93
2018-05-12T05:00:30.662Z,15.01
2018-05-12T05:02:58.785Z,15.07
2018-05-12T05:05:26.918Z,15.11
2018-05-12T05:07:55.070Z,15.21
2018-05-12T05:10:23.243Z,15.28
2018-05-12T05:12:51.390Z,15.31
2018-05-12T05:15:19.527Z,15.37
2018-05-12T05:17:47.666Z,15.38
2018-05-12T05:20:15.873Z,15.49
2018-05-12T05:22:43.949Z,15.60
2018-05-12T05:25:12.090Z,15.63
2018-05-12T05:27:40.226Z,15.72
2018-05-12T05:30:08.355Z,15.75
2018-05-12T05:32:36.499Z,15.78
2018-05-12T05:35:04.643Z,15.85
2018-05-12T05:37:32.782Z,16.00
2018-05-12T05:40:00.917Z,16.04
2018-05-12T05:42:29.074Z,16.03
2018-05-12T05:44:57.220Z,16.13
2018-05-12T05:47:25.346Z,16.25
2018-05-12T05:49:53.494Z,16.46
2018-05-12T05:52:21.635Z,16.62
2018-05-12T05:54:49.777Z,16.61
2018-05-12T05:57:17.913Z,16.82
2018-05-12T05:59:46.047Z,16.93
2018-05-12T06:02:14.176Z,16.96
2018-05-12T06:04:42.340Z,16.99
2018-05-12T06:07:10.828Z,17.06
2018-05-12T06:09:38.876Z,17.15
2018-05-12T06:12:07.017Z,17.21
2018-05-12T06:14:35.167Z,17.14
2018-05-12T06:17:03.307Z,17.38
2018-05-12T06:19:33.062Z,17.48
2018-05-12T06:22:01.190Z,17.76
2018-05-12T06:24:29.322Z,17.79
2018-05-12T06:26:57.482Z,17.63
2018-05-12T06:29:27.171Z,17.82
2018-05-12T06:31:56.569Z,17.98
2018-05-12T06:34:24.758Z,18.17
2018-05-12T06:36:52.906Z,18.20
2018-05-12T06:39:21.072Z,18.31
2018-05-12T06:41:49.182Z,18.25
2018-05-12T06:44:17.338Z,18.39
2018-05-12T06:46:45.485Z,18.15
2018-05-12T06:49:13.712Z,18.08
2018-05-12T06:51:41.831Z,17.95
2018-05-12T06:54:09.975Z,17.94
2018-05-12T06:56:38.139Z,18.21
2018-05-12T06:59:06.297Z,18.38
2018-05-12T07:01:34.443Z,18.37
2018-05-12T07:04:02.606Z,18.54
2018-05-12T07:06:30.738Z,18.52
2018-05-12T07:08:58.878Z,18.78
2018-05-12T07:11:27.011Z,18.80
2018-05-12T07:13:55.159Z,18.68
2018-05-12T07:16:23.312Z,18.70
2018-05-12T07:18:51.463Z,18.76
2018-05-12T07:21:19.585Z,18.90
2018-05-12T07:23:47.718Z,19.03
2018-05-12T07:26:15.854Z,19.03
2018-05-12T07:28:43.994Z,19.23
2018-05-12T07:31:12.150Z,19.27
2018-05-12T07:33:40.294Z,19.42
2018-05-12T07:36:08.431Z,19.41
2018-05-12T07:38:36.597Z,19.47
2018-05-12T07:41:04.729Z,19.69
2018-05-12T07:43:32.855Z,19.78
2018-05-12T07:46:00.990Z,19.94
2018-05-12T07:48:29.168Z,20.07
2018-05-12T07:50:57.351Z,20.17
2018-05-12T07:53:25.512Z,20.08
2018-05-12T07:55:53.655Z,19.99
2018-05-12T07:58:21.779Z,20.23
2018-05-12T08:00:49.912Z,20.23
2018-05-12T08:03:18.047Z,20.27
2018-05-12T08:05:46.187Z,20.19
2018-05-12T08:08:14.337Z,20.34
2018-05-12T08:10:42.496Z,20.43
2018-05-12T08:13:10.652Z,20.60
2018-05-12T08:15:38.790Z,20.67
2018-05-12T08:18:06.953Z,20.88
2018-05-12T08:20:35.177Z,20.83
2018-05-12T08:23:03.220Z,21.10
2018-05-12T08:25:32.898Z,21.21
2018-05-12T08:28:01.045Z,21.36
2018-05-12T08:30:30.069Z,21.35
2018-05-12T08:33:00.127Z,21.48
2018-05-12T08:35:28.334Z,21.75
2018-05-12T08:37:56.481Z,21.91
2018-05-12T08:40:24.650Z,22.16
2018-05-12T08:42:52.791Z,22.37
2018-05-12T08:45:20.943Z,22.53
2018-05-12T08:47:49.128Z,22.63
2018-05-12T08:50:17.264Z,22.77
2018-05-12T08:52:45.400Z,22.66
2018-05-12T08:55:13.550Z,22.81
2018-05-12T08:57:41.688Z,22.82
2018-05-12T09:00:09.810Z,23.01
2018-05-12T09:05:12.190Z,23.05
2018-05-12T09:07:40.333Z,22.85
2018-05-12T09:10:08.469Z,22.56
2018-05-12T09:12:36.594Z,22.86
2018-05-12T09:15:04.864Z,22.80
2018-05-12T09:17:32.999Z,23.22
2018-05-12T09:20:01.140Z,23.35
2018-05-12T09:22:29.291Z,23.11
2018-05-12T09:24:57.419Z,23.36
2018-05-12T09:27:25.577Z,23.19
2018-05-12T09:29:53.711Z,23.14
2018-05-12T09:32:21.854Z,23.26
2018-05-12T09:34:50.014Z,23.24
2018-05-12T09:37:18.222Z,23.32
2018-05-12T09:39:46.339Z,23.40
2018-05-12T09:42:14.561Z,23.27
2018-05-12T09:44:42.625Z,23.53
2018-05-12T09:47:10.787Z,23.09
2018-05-12T09:49:38.925Z,23.33
2018-05-12T09:52:07.076Z,23.67
2018-05-12T09:54:35.217Z,24.12
2018-05-12T09:57:03.380Z,24.39
2018-05-12T09:59:31.736Z,24.73
2018-05-12T10:01:59.806Z,25.00
2018-05-12T10:04:27.932Z,24.95
2018-05-12T10:06:56.095Z,24.82
2018-05-12T10:09:24.231Z,24.50
2018-05-12T10:11:52.365Z,24.61
2018-05-12T10:14:20.526Z,24.92
2018-05-12T10:16:48.694Z,25.43
2018-05-12T10:19:16.861Z,25.45
2018-05-12T10:21:45.066Z,25.18
2018-05-12T10:24:13.235Z,25.07
2018-05-12T10:26:41.340Z,25.40
2018-05-12T10:29:10.223Z,25.36
2018-05-12T10:31:38.350Z,25.29
2018-05-12T10:34:06.483Z,25.53
2018-05-12T10:36:34.643Z,25.40
2018-05-12T10:39:02.770Z,24.86
2018-05-12T10:41:30.907Z,25.37
2018-05-12T10:43:59.073Z,26.01
2018-05-12T10:46:27.191Z,26.25
2018-05-12T10:48:55.341Z,26.35
2018-05-12T10:51:23.669Z,26.46
2018-05-12T10:53:51.812Z,26.54
2018-05-12T10:56:19.934Z,26.55
2018-05-12T10:58:48.109Z,26.24
2018-05-12T11:01:16.241Z,26.18
2018-05-12T11:03:44.375Z,26.03
2018-05-12T11:06:12.534Z,26.13
2018-05-12T11:08:40.671Z,26.44
2018-05-12T11:11:09.295Z,26.52
2018-05-12T11:13:37.730Z,26.44
2018-05-12T11:16:05.979Z,26.71
2018-05-12T11:18:34.062Z,26.41
2018-05-12T11:21:02.212Z,26.62
2018-05-12T11:23:30.363Z,26.73
2018-05-12T11:25:58.499Z,27.01
2018-05-12T11:28:26.648Z,26.81
2018-05-12T11:30:54.870Z,26.68
2018-05-12T11:33:23.018Z,27.01
2018-05-12T11:35:51.348Z,27.15
2018-05-12T11:38:19.466Z,27.27
2018-05-12T11:40:47.634Z,27.37
2018-05-12T11:43:15.803Z,27.12
2018-05-12T11:45:43.941Z,26.82
2018-05-12T11:48:12.093Z,27.25
2018-05-12T11:50:40.267Z,27.23
2018-05-12T11:53:08.458Z,27.43
2018-05-12T11:55:36.600Z,27.66
2018-05-12T11:58:04.774Z,27.27
2018-05-12T12:00:32.920Z,26.68
2018-05-12T12:03:01.075Z,26.78
2018-05-12T12:05:29.387Z,27.13
2018-05-12T12:07:57.512Z,27.26
2018-05-12T12:10:25.663Z,27.42
2018-05-12T12:12:53.839Z,27.32
2018-05-12T12:15:21.987Z,27.12
2018-05-12T12:17:50.137Z,27.29
2018-05-12T12:20:18.308Z,27.52
2018-05-12T12:22:46.450Z,27.65
2018-05-12T12:25:14.569Z,27.28
2018-05-12T12:27:42.712Z,26.97
2018-05-12T12:30:10.853Z,26.88
2018-05-12T12:32:39.024Z,27.16
2018-05-12T12:35:07.274Z,27.44
2018-05-12T12:37:35.405Z,27.45
2018-05-12T12:40:03.539Z,27.57
2018-05-12T12:42:31.859Z,27.55
2018-05-12T12:44:59.988Z,27.17
2018-05-12T12:47:28.116Z,27.42
2018-05-12T12:49:56.280Z,27.54
2018-05-12T12:52:24.381Z,27.66
2018-05-12T12:54:52.505Z,27.33
2018-05-12T12:57:20.653Z,27.06
2018-05-12T12:59:48.762Z,27.24
2018-05-12T13:02:16.903Z,27.45
2018-05-12T13:04:45.316Z,26.84
2018-05-12T13:07:13.353Z,26.52
2018-05-12T13:09:41.482Z,26.40
2018-05-12T13:12:09.784Z,26.27
2018-05-12T13:14:41.043Z,26.33
2018-05-12T13:17:09.177Z,26.26
2018-05-12T13:19:37.343Z,26.59
2018-05-12T13:22:05.600Z,26.76
2018-05-12T13:24:33.659Z,26.82
2018-05-12T13:27:01.838Z,26.85
2018-05-12T13:29:29.968Z,26.67
2018-05-12T13:31:58.095Z,26.83
2018-05-12T13:34:26.255Z,26.80
2018-05-12T13:36:54.379Z,26.64
2018-05-12T13:39:22.523Z,26.57
2018-05-12T13:41:50.689Z,26.69
2018-05-12T13:44:18.855Z,26.81
2018-05-12T13:46:46.979Z,26.74
2018-05-12T13:49:15.215Z,26.33
2018-05-12T13:51:43.340Z,25.94
2018-05-12T13:54:11.466Z,25.83
2018-05-12T13:56:39.770Z,25.75
2018-05-12T13:59:08.731Z,25.73
2018-05-12T14:01:36.897Z,25.72
2018-05-12T14:04:05.047Z,25.74
2018-05-12T14:06:33.183Z,25.93
2018-05-12T14:09:01.311Z,25.93
2018-05-12T14:11:29.472Z,25.85
2018-05-12T14:13:57.582Z,25.76
2018-05-12T14:16:25.716Z,25.79
2018-05-12T14:18:53.967Z,25.59
2018-05-12T14:21:22.083Z,25.60
2018-05-12T14:23:50.222Z,25.55
2018-05-12T14:26:18.520Z,25.33
2018-05-12T14:28:46.658Z,25.40
2018-05-12T14:31:14.804Z,25.45
2018-05-12T14:33:42.969Z,25.38
2018-05-12T14:36:11.121Z,25.24
2018-05-12T14:38:39.244Z,24.98
2018-05-12T14:41:07.453Z,25.00
2018-05-12T14:43:35.567Z,24.86
2018-05-12T14:46:03.720Z,24.78
2018-05-12T14:48:31.861Z,24.76
2018-05-12T14:50:59.996Z,24.73
2018-05-12T14:53:28.148Z,24.57
2018-05-12T14:55:58.353Z,24.49
2018-05-12T14:58:26.492Z,24.34
2018-05-12T15:00:54.613Z,24.41
2018-05-12T15:03:22.768Z,24.30
2018-05-12T15:05:50.907Z,24.34
2018-05-12T15:08:19.096Z,24.21
2018-05-12T15:10:47.234Z,24.14
2018-05-12T15:13:15.352Z,24.08
2018-05-12T15:15:43.506Z,24.05
2018-05-12T15:18:11.673Z,23.98
2018-05-12T15:20:39.783Z,23.86
2018-05-12T15:23:07.915Z,24.01
2018-05-12T15:25:36.199Z,24.10
2018-05-12T15:28:04.319Z,24.01
2018-05-12T15:30:32.446Z,23.96
2018-05-12T15:33:00.899Z,23.97
2018-05-12T15:35:29.034Z,23.80
2018-05-12T15:37:57.176Z,23.79
2018-05-12T15:40:25.322Z,23.66
2018-05-12T15:42:53.475Z,23.77
2018-05-12T15:45:21.601Z,23.72
2018-05-12T15:47:49.757Z,23.82
2018-05-12T15:50:17.915Z,23.80
2018-05-12T15:52:46.067Z,23.79
2018-05-12T15:55:14.354Z,23.77
2018-05-12T15:57:42.500Z,23.80
2018-05-12T16:00:10.651Z,23.80
2018-05-12T16:02:38.778Z,23.79
2018-05-12T16:05:06.988Z,23.78
2018-05-12T16:07:35.119Z,23.77
2018-05-12T16:10:03.281Z,23.73
2018-05-12T16:12:31.411Z,23.58
2018-05-12T16:14:59.543Z,23.56
2018-05-12T16:17:27.687Z,23.48
2018-05-12T16:19:55.794Z,23.52
2018-05-12T16:22:23.952Z,23.47
2018-05-12T16:24:52.131Z,23.46
2018-05-12T16:27:20.276Z,23.33
2018-05-12T16:29:49.716Z,23.25
2018-05-12T16:32:18.255Z,23.18
2018-05-12T16:34:46.444Z,23.19
2018-05-12T16:37:14.559Z,23.26
2018-05-12T16:39:42.724Z,23.19
2018-05-12T16:42:10.850Z,23.13
2018-05-12T16:44:39.089Z,23.16
2018-05-12T16:47:07.223Z,23.20
2018-05-12T16:49:35.340Z,23.15
2018-05-12T16:52:03.471Z,23.09
2018-05-12T16:54:31.629Z,23.00
2018-05-12T16:56:59.747Z,22.92
2018-05-12T16:59:27.861Z,22.85
2018-05-12T17:01:56.068Z,22.78
2018-05-12T17:04:24.120Z,22.76
2018-05-12T17:06:52.234Z,22.75
2018-05-12T17:09:20.379Z,22.65
2018-05-12T17:11:48.502Z,22.61
2018-05-12T17:14:16.635Z,22.60
2018-05-12T17:16:44.759Z,22.56
2018-05-12T17:19:12.897Z,22.49
2018-05-12T17:21:41.042Z,22.41
2018-05-12T17:24:09.178Z,22.30
2018-05-12T17:26:37.307Z,22.27
2018-05-12T17:29:05.468Z,22.23
2018-05-12T17:31:33.661Z,22.16
2018-05-12T17:34:01.810Z,22.09
2018-05-12T17:36:29.939Z,22.01
2018-05-12T17:38:58.081Z,21.96
2018-05-12T17:41:26.215Z,21.92
2018-05-12T17:43:54.378Z,21.87
2018-05-12T17:46:22.510Z,21.83
2018-05-12T17:48:50.652Z,21.83
2018-05-12T17:51:18.864Z,21.77
2018-05-12T17:53:47.065Z,21.72
2018-05-12T17:56:15.262Z,21.69
2018-05-12T17:58:43.424Z,21.56
2018-05-12T18:01:11.577Z,21.47
2018-05-12T18:03:39.727Z,21.41
2018-05-12T18:06:07.859Z,21.41
2018-05-12T18:08:35.996Z,21.36
2018-05-12T18:11:04.286Z,21.26
2018-05-12T18:13:32.416Z,21.16
2018-05-12T18:16:00.576Z,21.06
2018-05-12T18:18:28.715Z,20.98
2018-05-12T18:20:56.857Z,20.82
2018-05-12T18:23:25.031Z,20.71
2018-05-12T18:25:53.177Z,20.62
2018-05-12T18:28:21.327Z,20.53
2018-05-12T18:30:49.515Z,20.41
2018-05-12T18:33:17.637Z,20.37
2018-05-12T18:35:45.781Z,20.33
2018-05-12T18:38:13.948Z,20.24
2018-05-12T18:40:43.581Z,20.12
2018-05-12T18:43:11.796Z,20.02
2018-05-12T18:45:39.940Z,19.91
2018-05-12T18:48:08.087Z,19.82
2018-05-12T18:50:36.280Z,19.77
2018-05-12T18:53:04.397Z,19.75
2018-05-12T18:55:32.528Z,19.70
2018-05-12T18:58:00.662Z,19.66
2018-05-12T19:00:28.826Z,19.62
